sensor_id;sensor_type;location;lat;lon;timestamp;pressure;altitude;pressure_sealevel;temperature;humidity
60886;BME280;46736;41.654;-8.438;2022-08-19T01:02:14;100683.16;;;18.28;55.13
60886;BME280;46736;41.654;-8.438;2022-08-19T01:16:07;100676.84;;;18.08;55.42
60886;BME280;46736;41.654;-8.438;2022-08-19T01:18:11;100688.13;;;18.21;55.62
60886;BME280;46736;41.654;-8.438;2022-08-19T01:23:03;100686.06;;;18.12;56.64
60886;BME280;46736;41.654;-8.438;2022-08-19T01:27:37;100678.47;;;17.85;56.89
60886;BME280;46736;41.654;-8.438;2022-08-19T01:32:26;100684.31;;;17.68;57.75
60886;BME280;46736;41.654;-8.438;2022-08-19T01:34:26;100680.22;;;17.71;58.87
60886;BME280;46736;41.654;-8.438;2022-08-19T01:36:33;100669.72;;;17.59;58.30
60886;BME280;46736;41.654;-8.438;2022-08-19T01:44:08;100668.72;;;17.50;57.05
60886;BME280;46736;41.654;-8.438;2022-08-19T01:55:58;100666.25;;;17.54;57.35
60886;BME280;46736;41.654;-8.438;2022-08-19T01:58:02;100669.75;;;17.54;57.59
60886;BME280;46736;41.654;-8.438;2022-08-19T02:11:52;100671.69;;;17.83;55.95
60886;BME280;46736;41.654;-8.438;2022-08-19T02:16:31;100656.91;;;17.65;57.74
60886;BME280;46736;41.654;-8.438;2022-08-19T02:26:21;100665.53;;;17.43;59.26
60886;BME280;46736;41.654;-8.438;2022-08-19T02:45:00;100661.53;;;17.35;58.02
60886;BME280;46736;41.654;-8.438;2022-08-19T02:47:01;100676.44;;;17.38;58.10
60886;BME280;46736;41.654;-8.438;2022-08-19T02:51:28;100679.41;;;17.41;58.41
60886;BME280;46736;41.654;-8.438;2022-08-19T02:53:29;100674.22;;;17.45;58.50
60886;BME280;46736;41.654;-8.438;2022-08-19T02:55:31;100681.31;;;17.41;58.97
60886;BME280;46736;41.654;-8.438;2022-08-19T03:04:30;100678.84;;;17.74;57.41
60886;BME280;46736;41.654;-8.438;2022-08-19T03:06:31;100673.34;;;17.79;57.55
60886;BME280;46736;41.654;-8.438;2022-08-19T03:18:09;100689.81;;;17.34;58.75
60886;BME280;46736;41.654;-8.438;2022-08-19T03:20:11;100682.81;;;17.23;59.44
60886;BME280;46736;41.654;-8.438;2022-08-19T03:31:34;100679.25;;;16.93;60.61
60886;BME280;46736;41.654;-8.438;2022-08-19T03:33:35;100685.06;;;16.76;61.46
60886;BME280;46736;41.654;-8.438;2022-08-19T03:35:38;100684.47;;;16.84;62.07
60886;BME280;46736;41.654;-8.438;2022-08-19T03:37:39;100688.16;;;16.99;60.65
60886;BME280;46736;41.654;-8.438;2022-08-19T03:39:40;100683.97;;;16.77;61.05
60886;BME280;46736;41.654;-8.438;2022-08-19T03:43:53;100689.69;;;16.71;61.03
60886;BME280;46736;41.654;-8.438;2022-08-19T03:51:16;100682.81;;;16.89;61.12
60886;BME280;46736;41.654;-8.438;2022-08-19T03:55:43;100688.44;;;16.53;62.85
60886;BME280;46736;41.654;-8.438;2022-08-19T03:57:45;100697.16;;;16.45;63.53
60886;BME280;46736;41.654;-8.438;2022-08-19T04:21:04;100691.09;;;16.58;62.15
60886;BME280;46736;41.654;-8.438;2022-08-19T04:23:05;100681.59;;;16.60;61.16
60886;BME280;46736;41.654;-8.438;2022-08-19T04:25:20;100700.28;;;16.72;62.05
60886;BME280;46736;41.654;-8.438;2022-08-19T04:27:21;100691.94;;;16.58;63.19
60886;BME280;46736;41.654;-8.438;2022-08-19T04:29:24;100708.47;;;16.62;63.56
60886;BME280;46736;41.654;-8.438;2022-08-19T04:31:30;100697.41;;;16.48;63.51
60886;BME280;46736;41.654;-8.438;2022-08-19T04:40:49;100704.31;;;16.20;65.02
60886;BME280;46736;41.654;-8.438;2022-08-19T04:45:39;100704.84;;;16.22;63.87
60886;BME280;46736;41.654;-8.438;2022-08-19T04:50:04;100711.94;;;16.08;64.75
60886;BME280;46736;41.654;-8.438;2022-08-19T04:54:43;100706.84;;;15.91;65.46
60886;BME280;46736;41.654;-8.438;2022-08-19T04:57:15;100715.47;;;16.08;65.94
60886;BME280;46736;41.654;-8.438;2022-08-19T04:59:19;100712.53;;;15.94;66.12
60886;BME280;46736;41.654;-8.438;2022-08-19T05:01:28;100710.13;;;15.83;65.51
60886;BME280;46736;41.654;-8.438;2022-08-19T05:03:31;100714.44;;;15.84;64.90
60886;BME280;46736;41.654;-8.438;2022-08-19T05:10:22;100712.25;;;15.96;64.48
60886;BME280;46736;41.654;-8.438;2022-08-19T05:12:25;100720.41;;;15.86;65.96
60886;BME280;46736;41.654;-8.438;2022-08-19T05:21:22;100722.06;;;15.71;66.23
60886;BME280;46736;41.654;-8.438;2022-08-19T05:26:21;100733.16;;;15.95;64.53
60886;BME280;46736;41.654;-8.438;2022-08-19T05:30:45;100730.16;;;15.97;66.05
60886;BME280;46736;41.654;-8.438;2022-08-19T05:35:05;100713.91;;;15.71;65.77
60886;BME280;46736;41.654;-8.438;2022-08-19T05:37:07;100730.97;;;15.92;65.84
60886;BME280;46736;41.654;-8.438;2022-08-19T05:39:15;100742.94;;;15.71;66.38
60886;BME280;46736;41.654;-8.438;2022-08-19T05:41:16;100749.69;;;15.68;66.56
60886;BME280;46736;41.654;-8.438;2022-08-19T05:43:18;100748.63;;;15.64;66.02
60886;BME280;46736;41.654;-8.438;2022-08-19T05:45:19;100740.50;;;15.59;66.20
60886;BME280;46736;41.654;-8.438;2022-08-19T05:47:21;100751.06;;;15.76;66.68
60886;BME280;46736;41.654;-8.438;2022-08-19T05:51:34;100754.31;;;15.52;67.48
60886;BME280;46736;41.654;-8.438;2022-08-19T05:56:17;100745.91;;;15.34;67.93
60886;BME280;46736;41.654;-8.438;2022-08-19T05:58:18;100755.09;;;15.43;68.10
60886;BME280;46736;41.654;-8.438;2022-08-19T06:07:35;100774.38;;;15.67;66.49
60886;BME280;46736;41.654;-8.438;2022-08-19T06:09:40;100784.16;;;15.83;66.95
60886;BME280;46736;41.654;-8.438;2022-08-19T06:11:44;100776.84;;;15.79;66.40
60886;BME280;46736;41.654;-8.438;2022-08-19T06:13:53;100788.50;;;15.89;64.70
60886;BME280;46736;41.654;-8.438;2022-08-19T06:15:54;100776.25;;;16.07;65.04
60886;BME280;46736;41.654;-8.438;2022-08-19T06:17:58;100790.38;;;16.14;66.18
60886;BME280;46736;41.654;-8.438;2022-08-19T06:20:00;100791.72;;;16.07;65.00
60886;BME280;46736;41.654;-8.438;2022-08-19T06:22:02;100803.94;;;16.04;65.67
60886;BME280;46736;41.654;-8.438;2022-08-19T06:26:16;100796.84;;;16.24;63.58
60886;BME280;46736;41.654;-8.438;2022-08-19T06:30:55;100798.94;;;16.52;63.55
60886;BME280;46736;41.654;-8.438;2022-08-19T06:32:56;100794.84;;;16.55;64.80
60886;BME280;46736;41.654;-8.438;2022-08-19T06:34:57;100799.78;;;16.53;65.27
60886;BME280;46736;41.654;-8.438;2022-08-19T06:37:00;100792.94;;;16.55;64.26
60886;BME280;46736;41.654;-8.438;2022-08-19T06:43:58;100790.47;;;16.69;64.04
60886;BME280;46736;41.654;-8.438;2022-08-19T06:51:16;100804.06;;;17.24;61.16
60886;BME280;46736;41.654;-8.438;2022-08-19T06:55:43;100800.22;;;17.64;60.19
60886;BME280;46736;41.654;-8.438;2022-08-19T08:48:51;100873.63;;;41.30;16.76
60886;BME280;46736;41.654;-8.438;2022-08-19T16:05:51;100521.78;;;36.31;21.94
60886;BME280;46736;41.654;-8.438;2022-08-19T16:08:07;100523.97;;;36.16;22.46
60886;BME280;46736;41.654;-8.438;2022-08-19T16:10:09;100531.03;;;36.28;22.21
60886;BME280;46736;41.654;-8.438;2022-08-19T16:12:11;100532.28;;;36.23;21.70
60886;BME280;46736;41.654;-8.438;2022-08-19T16:14:14;100527.22;;;36.14;22.04
60886;BME280;46736;41.654;-8.438;2022-08-19T16:16:15;100515.13;;;35.87;21.78
60886;BME280;46736;41.654;-8.438;2022-08-19T16:18:16;100527.22;;;35.77;21.98
60886;BME280;46736;41.654;-8.438;2022-08-19T16:20:17;100521.81;;;35.59;22.50
60886;BME280;46736;41.654;-8.438;2022-08-19T16:22:18;100513.78;;;35.64;22.63
60886;BME280;46736;41.654;-8.438;2022-08-19T16:24:21;100516.09;;;35.73;22.58
60886;BME280;46736;41.654;-8.438;2022-08-19T16:26:23;100510.22;;;35.60;22.55
60886;BME280;46736;41.654;-8.438;2022-08-19T16:28:25;100514.53;;;35.68;22.82
60886;BME280;46736;41.654;-8.438;2022-08-19T16:30:27;100518.25;;;35.92;23.34
60886;BME280;46736;41.654;-8.438;2022-08-19T16:32:28;100519.94;;;36.21;22.71
60886;BME280;46736;41.654;-8.438;2022-08-19T16:34:29;100517.19;;;36.17;21.70
60886;BME280;46736;41.654;-8.438;2022-08-19T16:36:30;100503.84;;;35.94;22.03
60886;BME280;46736;41.654;-8.438;2022-08-19T16:38:32;100514.19;;;36.01;22.15
60886;BME280;46736;41.654;-8.438;2022-08-19T16:40:34;100508.72;;;35.86;22.57
60886;BME280;46736;41.654;-8.438;2022-08-19T16:42:35;100512.78;;;35.82;22.41
60886;BME280;46736;41.654;-8.438;2022-08-19T16:44:39;100503.66;;;35.78;21.98
60886;BME280;46736;41.654;-8.438;2022-08-19T16:46:41;100509.97;;;35.85;22.32
60886;BME280;46736;41.654;-8.438;2022-08-19T16:48:41;100484.34;;;35.87;22.58
60886;BME280;46736;41.654;-8.438;2022-08-19T16:50:44;100497.41;;;35.97;22.12
60886;BME280;46736;41.654;-8.438;2022-08-19T16:52:47;100469.16;;;35.88;22.03
60886;BME280;46736;41.654;-8.438;2022-08-19T16:54:48;100498.91;;;36.05;22.40
60886;BME280;46736;41.654;-8.438;2022-08-19T16:56:49;100494.81;;;35.83;22.22
60886;BME280;46736;41.654;-8.438;2022-08-19T16:58:51;100489.34;;;35.72;22.11
60886;BME280;46736;41.654;-8.438;2022-08-19T17:00:54;100479.09;;;35.58;22.63
60886;BME280;46736;41.654;-8.438;2022-08-19T17:03:07;100492.06;;;35.76;22.43
60886;BME280;46736;41.654;-8.438;2022-08-19T17:05:10;100496.28;;;35.91;22.71
60886;BME280;46736;41.654;-8.438;2022-08-19T17:07:14;100477.31;;;35.71;22.75
60886;BME280;46736;41.654;-8.438;2022-08-19T17:09:14;100488.28;;;35.93;23.12
60886;BME280;46736;41.654;-8.438;2022-08-19T17:11:16;100482.94;;;36.02;22.98
60886;BME280;46736;41.654;-8.438;2022-08-19T17:13:17;100497.72;;;36.03;22.54
60886;BME280;46736;41.654;-8.438;2022-08-19T17:15:18;100486.59;;;35.99;22.65
60886;BME280;46736;41.654;-8.438;2022-08-19T17:17:19;100493.13;;;35.89;22.67
60886;BME280;46736;41.654;-8.438;2022-08-19T17:19:21;100500.28;;;35.90;22.94
60886;BME280;46736;41.654;-8.438;2022-08-19T17:21:24;100495.84;;;35.96;23.20
60886;BME280;46736;41.654;-8.438;2022-08-19T17:23:27;100485.94;;;35.88;22.88
60886;BME280;46736;41.654;-8.438;2022-08-19T17:25:31;100481.50;;;35.56;22.79
60886;BME280;46736;41.654;-8.438;2022-08-19T17:27:32;100496.19;;;35.67;22.92
60886;BME280;46736;41.654;-8.438;2022-08-19T17:29:33;100492.22;;;35.61;23.34
60886;BME280;46736;41.654;-8.438;2022-08-19T17:31:35;100489.75;;;35.70;23.04
60886;BME280;46736;41.654;-8.438;2022-08-19T17:33:36;100479.63;;;35.80;23.51
60886;BME280;46736;41.654;-8.438;2022-08-19T17:35:37;100482.72;;;35.89;23.40
60886;BME280;46736;41.654;-8.438;2022-08-19T17:37:42;100471.50;;;35.55;23.22
60886;BME280;46736;41.654;-8.438;2022-08-19T17:39:44;100477.88;;;35.56;23.19
60886;BME280;46736;41.654;-8.438;2022-08-19T17:41:45;100479.78;;;35.66;23.57
60886;BME280;46736;41.654;-8.438;2022-08-19T17:43:45;100470.75;;;35.51;22.80
60886;BME280;46736;41.654;-8.438;2022-08-19T17:45:46;100493.25;;;35.37;23.00
60886;BME280;46736;41.654;-8.438;2022-08-19T17:47:49;100476.09;;;34.90;23.08
60886;BME280;46736;41.654;-8.438;2022-08-19T17:49:49;100493.31;;;34.84;23.76
60886;BME280;46736;41.654;-8.438;2022-08-19T17:51:51;100487.75;;;34.77;24.07
60886;BME280;46736;41.654;-8.438;2022-08-19T17:53:53;100488.06;;;34.90;24.89
60886;BME280;46736;41.654;-8.438;2022-08-19T17:55:54;100474.88;;;34.94;24.29
60886;BME280;46736;41.654;-8.438;2022-08-19T17:57:55;100474.91;;;34.87;24.03
60886;BME280;46736;41.654;-8.438;2022-08-19T17:59:56;100486.03;;;34.94;24.06
60886;BME280;46736;41.654;-8.438;2022-08-19T18:01:57;100493.19;;;34.99;23.95
60886;BME280;46736;41.654;-8.438;2022-08-19T18:03:59;100492.81;;;34.93;23.74
60886;BME280;46736;41.654;-8.438;2022-08-19T18:06:01;100494.81;;;34.96;23.42
60886;BME280;46736;41.654;-8.438;2022-08-19T18:08:02;100491.38;;;34.74;24.04
60886;BME280;46736;41.654;-8.438;2022-08-19T18:10:04;100493.00;;;34.72;23.83
60886;BME280;46736;41.654;-8.438;2022-08-19T18:12:07;100506.28;;;34.50;23.89
60886;BME280;46736;41.654;-8.438;2022-08-19T18:14:08;100504.00;;;34.30;24.56
60886;BME280;46736;41.654;-8.438;2022-08-19T18:16:08;100492.09;;;34.19;24.96
60886;BME280;46736;41.654;-8.438;2022-08-19T18:18:12;100502.81;;;34.31;24.82
60886;BME280;46736;41.654;-8.438;2022-08-19T18:20:15;100498.00;;;34.28;23.99
60886;BME280;46736;41.654;-8.438;2022-08-19T18:22:33;100504.00;;;34.34;24.38
60886;BME280;46736;41.654;-8.438;2022-08-19T18:24:38;100493.72;;;34.13;24.54
60886;BME280;46736;41.654;-8.438;2022-08-19T18:26:39;100495.72;;;34.05;24.26
60886;BME280;46736;41.654;-8.438;2022-08-19T18:28:40;100494.94;;;34.08;24.63
60886;BME280;46736;41.654;-8.438;2022-08-19T18:30:41;100494.41;;;34.35;24.09
60886;BME280;46736;41.654;-8.438;2022-08-19T18:32:42;100512.22;;;34.59;24.36
60886;BME280;46736;41.654;-8.438;2022-08-19T18:34:44;100511.44;;;34.55;23.96
60886;BME280;46736;41.654;-8.438;2022-08-19T18:36:45;100497.25;;;34.20;24.07
60886;BME280;46736;41.654;-8.438;2022-08-19T18:38:46;100520.00;;;34.19;23.84
60886;BME280;46736;41.654;-8.438;2022-08-19T18:41:03;100519.28;;;33.90;24.58
60886;BME280;46736;41.654;-8.438;2022-08-19T18:43:19;100499.84;;;33.50;25.13
60886;BME280;46736;41.654;-8.438;2022-08-19T18:45:37;100505.84;;;33.24;25.44
60886;BME280;46736;41.654;-8.438;2022-08-19T18:47:53;100514.16;;;32.84;25.72
60886;BME280;46736;41.654;-8.438;2022-08-19T18:50:09;100519.34;;;32.75;26.18
60886;BME280;46736;41.654;-8.438;2022-08-19T18:52:12;100516.53;;;32.68;26.88
60886;BME280;46736;41.654;-8.438;2022-08-19T18:54:12;100496.22;;;32.53;26.46
60886;BME280;46736;41.654;-8.438;2022-08-19T18:56:16;100513.22;;;32.26;27.12
60886;BME280;46736;41.654;-8.438;2022-08-19T18:58:17;100529.00;;;31.97;28.30
60886;BME280;46736;41.654;-8.438;2022-08-19T19:00:18;100513.31;;;31.68;28.12
60886;BME280;46736;41.654;-8.438;2022-08-19T19:02:18;100525.13;;;31.50;28.57
60886;BME280;46736;41.654;-8.438;2022-08-19T19:04:25;100523.25;;;31.17;30.02
60886;BME280;46736;41.654;-8.438;2022-08-19T19:06:33;100507.63;;;31.02;29.95
60886;BME280;46736;41.654;-8.438;2022-08-19T19:08:37;100527.34;;;30.89;30.15
60886;BME280;46736;41.654;-8.438;2022-08-19T19:10:40;100513.56;;;30.63;30.23
60886;BME280;46736;41.654;-8.438;2022-08-19T19:12:42;100500.44;;;30.22;30.34
60886;BME280;46736;41.654;-8.438;2022-08-19T19:14:45;100512.00;;;30.28;32.22
60886;BME280;46736;41.654;-8.438;2022-08-19T19:16:46;100513.59;;;29.99;31.59
60886;BME280;46736;41.654;-8.438;2022-08-19T19:18:48;100503.41;;;29.76;31.43
60886;BME280;46736;41.654;-8.438;2022-08-19T19:20:52;100529.72;;;29.63;32.79
60886;BME280;46736;41.654;-8.438;2022-08-19T19:22:52;100523.47;;;29.43;32.77
60886;BME280;46736;41.654;-8.438;2022-08-19T19:24:53;100526.53;;;29.38;32.99
60886;BME280;46736;41.654;-8.438;2022-08-19T19:26:56;100534.38;;;29.32;32.74
60886;BME280;46736;41.654;-8.438;2022-08-19T19:28:57;100533.56;;;29.32;32.05
60886;BME280;46736;41.654;-8.438;2022-08-19T19:30:59;100519.06;;;29.15;32.33
60886;BME280;46736;41.654;-8.438;2022-08-19T19:32:59;100515.44;;;29.11;32.27
60886;BME280;46736;41.654;-8.438;2022-08-19T19:35:00;100533.22;;;29.10;32.05
60886;BME280;46736;41.654;-8.438;2022-08-19T19:37:01;100536.75;;;29.07;33.97
60886;BME280;46736;41.654;-8.438;2022-08-19T19:39:03;100534.47;;;28.93;34.58
60886;BME280;46736;41.654;-8.438;2022-08-19T19:41:04;100520.44;;;28.83;32.51
60886;BME280;46736;41.654;-8.438;2022-08-19T19:43:05;100523.72;;;28.88;35.05
60886;BME280;46736;41.654;-8.438;2022-08-19T19:45:06;100544.41;;;28.94;35.36
60886;BME280;46736;41.654;-8.438;2022-08-19T19:47:08;100559.09;;;28.98;36.59
60886;BME280;46736;41.654;-8.438;2022-08-19T19:49:09;100557.47;;;28.74;37.29
60886;BME280;46736;41.654;-8.438;2022-08-19T19:51:11;100560.63;;;28.53;38.22
60886;BME280;46736;41.654;-8.438;2022-08-19T19:53:12;100555.88;;;28.34;37.51
60886;BME280;46736;41.654;-8.438;2022-08-19T19:55:15;100555.09;;;27.99;37.60
60886;BME280;46736;41.654;-8.438;2022-08-19T19:57:17;100534.03;;;27.59;38.87
60886;BME280;46736;41.654;-8.438;2022-08-19T19:59:18;100561.91;;;27.69;38.82
60886;BME280;46736;41.654;-8.438;2022-08-19T20:01:21;100559.53;;;27.52;39.15
60886;BME280;46736;41.654;-8.438;2022-08-19T20:03:25;100561.84;;;27.34;38.18
60886;BME280;46736;41.654;-8.438;2022-08-19T20:05:26;100549.19;;;27.01;38.99
60886;BME280;46736;41.654;-8.438;2022-08-19T20:07:27;100550.66;;;26.83;40.03
60886;BME280;46736;41.654;-8.438;2022-08-19T20:09:45;100561.28;;;26.97;39.13
60886;BME280;46736;41.654;-8.438;2022-08-19T20:12:05;100574.06;;;26.89;40.74
60886;BME280;46736;41.654;-8.438;2022-08-19T20:14:12;100570.56;;;26.76;42.06
60886;BME280;46736;41.654;-8.438;2022-08-19T20:16:14;100571.13;;;26.54;42.71
60886;BME280;46736;41.654;-8.438;2022-08-19T20:18:15;100573.09;;;26.53;41.09
60886;BME280;46736;41.654;-8.438;2022-08-19T20:20:16;100577.81;;;26.40;42.61
60886;BME280;46736;41.654;-8.438;2022-08-19T20:22:18;100555.63;;;26.09;42.03
60886;BME280;46736;41.654;-8.438;2022-08-19T20:24:27;100580.53;;;26.12;42.35
60886;BME280;46736;41.654;-8.438;2022-08-19T20:26:28;100550.16;;;25.84;43.66
60886;BME280;46736;41.654;-8.438;2022-08-19T20:28:28;100584.56;;;26.03;42.66
60886;BME280;46736;41.654;-8.438;2022-08-19T20:30:29;100559.44;;;25.80;41.96
60886;BME280;46736;41.654;-8.438;2022-08-19T20:32:31;100570.56;;;25.95;41.90
60886;BME280;46736;41.654;-8.438;2022-08-19T20:34:32;100586.88;;;26.01;41.70
60886;BME280;46736;41.654;-8.438;2022-08-19T20:36:33;100584.13;;;25.88;43.84
60886;BME280;46736;41.654;-8.438;2022-08-19T20:38:35;100567.00;;;25.70;43.72
60886;BME280;46736;41.654;-8.438;2022-08-19T20:40:38;100571.72;;;25.70;43.85
60886;BME280;46736;41.654;-8.438;2022-08-19T20:42:42;100596.75;;;25.52;43.89
60886;BME280;46736;41.654;-8.438;2022-08-19T20:44:43;100577.31;;;25.24;44.36
60886;BME280;46736;41.654;-8.438;2022-08-19T20:46:43;100560.72;;;25.00;44.16
60886;BME280;46736;41.654;-8.438;2022-08-19T20:48:47;100575.72;;;25.02;44.16
60886;BME280;46736;41.654;-8.438;2022-08-19T20:50:48;100595.00;;;25.02;46.17
60886;BME280;46736;41.654;-8.438;2022-08-19T20:52:50;100593.97;;;25.07;46.99
60886;BME280;46736;41.654;-8.438;2022-08-19T20:54:51;100583.50;;;24.88;46.87
60886;BME280;46736;41.654;-8.438;2022-08-19T20:56:52;100576.47;;;24.78;46.80
60886;BME280;46736;41.654;-8.438;2022-08-19T20:58:53;100571.81;;;24.58;47.24
60886;BME280;46736;41.654;-8.438;2022-08-19T21:00:56;100591.66;;;24.63;48.44
60886;BME280;46736;41.654;-8.438;2022-08-19T21:02:59;100602.78;;;24.67;48.66
60886;BME280;46736;41.654;-8.438;2022-08-19T21:05:00;100601.72;;;24.59;47.34
60886;BME280;46736;41.654;-8.438;2022-08-19T21:07:00;100593.31;;;24.56;47.51
60886;BME280;46736;41.654;-8.438;2022-08-19T21:09:01;100592.09;;;24.53;47.96
60886;BME280;46736;41.654;-8.438;2022-08-19T21:11:03;100592.91;;;24.66;45.53
60886;BME280;46736;41.654;-8.438;2022-08-19T21:13:04;100589.72;;;24.43;46.50
60886;BME280;46736;41.654;-8.438;2022-08-19T21:15:05;100607.75;;;24.53;45.81
60886;BME280;46736;41.654;-8.438;2022-08-19T21:17:07;100594.94;;;24.57;46.26
60886;BME280;46736;41.654;-8.438;2022-08-19T21:19:07;100570.31;;;24.39;45.66
60886;BME280;46736;41.654;-8.438;2022-08-19T21:21:08;100606.06;;;24.60;43.84
60886;BME280;46736;41.654;-8.438;2022-08-19T21:23:13;100606.13;;;24.73;42.86
60886;BME280;46736;41.654;-8.438;2022-08-19T21:25:14;100609.53;;;24.91;41.84
60886;BME280;46736;41.654;-8.438;2022-08-19T21:27:15;100611.06;;;25.00;42.13
60886;BME280;46736;41.654;-8.438;2022-08-19T21:29:16;100602.56;;;24.93;41.89
60886;BME280;46736;41.654;-8.438;2022-08-19T21:31:17;100601.44;;;25.06;41.75
60886;BME280;46736;41.654;-8.438;2022-08-19T21:33:21;100610.38;;;25.03;42.18
60886;BME280;46736;41.654;-8.438;2022-08-19T21:35:24;100607.53;;;25.12;42.80
60886;BME280;46736;41.654;-8.438;2022-08-19T21:37:25;100600.59;;;24.94;43.92
60886;BME280;46736;41.654;-8.438;2022-08-19T21:39:26;100601.03;;;24.83;44.85
60886;BME280;46736;41.654;-8.438;2022-08-19T21:41:26;100583.19;;;24.68;46.41
60886;BME280;46736;41.654;-8.438;2022-08-19T21:43:29;100589.97;;;24.50;46.40
60886;BME280;46736;41.654;-8.438;2022-08-19T21:45:32;100611.91;;;24.38;46.14
60886;BME280;46736;41.654;-8.438;2022-08-19T21:47:32;100602.22;;;24.11;46.26
60886;BME280;46736;41.654;-8.438;2022-08-19T21:49:33;100595.50;;;23.99;47.30
60886;BME280;46736;41.654;-8.438;2022-08-19T21:51:34;100615.66;;;24.03;47.30
60886;BME280;46736;41.654;-8.438;2022-08-19T21:53:36;100611.13;;;24.08;47.25
60886;BME280;46736;41.654;-8.438;2022-08-19T21:55:37;100606.78;;;24.07;48.16
60886;BME280;46736;41.654;-8.438;2022-08-19T21:57:38;100579.97;;;23.74;47.72
60886;BME280;46736;41.654;-8.438;2022-08-19T21:59:39;100610.00;;;23.79;48.06
60886;BME280;46736;41.654;-8.438;2022-08-19T22:01:41;100603.53;;;23.75;48.64
60886;BME280;46736;41.654;-8.438;2022-08-19T22:03:43;100580.38;;;23.46;48.63
60886;BME280;46736;41.654;-8.438;2022-08-19T22:05:43;100610.22;;;23.56;48.52
60886;BME280;46736;41.654;-8.438;2022-08-19T22:07:45;100603.44;;;23.63;48.77
60886;BME280;46736;41.654;-8.438;2022-08-19T22:09:48;100589.59;;;23.50;49.55
60886;BME280;46736;41.654;-8.438;2022-08-19T22:11:49;100603.13;;;23.55;50.15
60886;BME280;46736;41.654;-8.438;2022-08-19T22:13:50;100582.22;;;23.33;49.90
60886;BME280;46736;41.654;-8.438;2022-08-19T22:15:53;100607.38;;;23.44;50.53
60886;BME280;46736;41.654;-8.438;2022-08-19T22:17:56;100598.53;;;23.30;50.83
60886;BME280;46736;41.654;-8.438;2022-08-19T22:19:57;100592.38;;;23.42;48.73
60886;BME280;46736;41.654;-8.438;2022-08-19T22:21:59;100590.38;;;23.51;48.11
60886;BME280;46736;41.654;-8.438;2022-08-19T22:24:00;100592.38;;;23.71;47.53
60886;BME280;46736;41.654;-8.438;2022-08-19T22:26:01;100592.09;;;23.73;47.15
60886;BME280;46736;41.654;-8.438;2022-08-19T22:28:04;100578.22;;;23.99;45.97
60886;BME280;46736;41.654;-8.438;2022-08-19T22:30:08;100584.06;;;24.18;45.21
60886;BME280;46736;41.654;-8.438;2022-08-19T22:32:09;100580.31;;;24.65;44.53
60886;BME280;46736;41.654;-8.438;2022-08-19T22:34:10;100570.97;;;24.78;42.98
60886;BME280;46736;41.654;-8.438;2022-08-19T22:36:12;100587.56;;;25.03;42.54
60886;BME280;46736;41.654;-8.438;2022-08-19T22:38:14;100581.59;;;25.34;42.05
60886;BME280;46736;41.654;-8.438;2022-08-19T22:40:16;100574.09;;;25.47;41.58
60886;BME280;46736;41.654;-8.438;2022-08-19T22:42:19;100585.94;;;25.47;41.62
60886;BME280;46736;41.654;-8.438;2022-08-19T22:44:20;100581.94;;;25.45;41.70
60886;BME280;46736;41.654;-8.438;2022-08-19T22:46:21;100600.28;;;25.41;42.02
60886;BME280;46736;41.654;-8.438;2022-08-19T22:48:24;100574.09;;;25.22;42.20
60886;BME280;46736;41.654;-8.438;2022-08-19T22:50:25;100597.97;;;25.30;42.63
60886;BME280;46736;41.654;-8.438;2022-08-19T22:52:27;100597.84;;;25.27;43.03
60886;BME280;46736;41.654;-8.438;2022-08-19T22:54:28;100588.59;;;24.98;44.78
60886;BME280;46736;41.654;-8.438;2022-08-19T22:56:29;100593.13;;;24.82;46.06
60886;BME280;46736;41.654;-8.438;2022-08-19T22:58:30;100607.22;;;24.59;46.25
60886;BME280;46736;41.654;-8.438;2022-08-19T23:00:32;100582.50;;;24.30;46.54
60886;BME280;46736;41.654;-8.438;2022-08-19T23:02:36;100605.16;;;24.27;46.78
60886;BME280;46736;41.654;-8.438;2022-08-19T23:04:38;100588.81;;;24.09;47.58
60886;BME280;46736;41.654;-8.438;2022-08-19T23:06:39;100599.66;;;24.06;47.40
60886;BME280;46736;41.654;-8.438;2022-08-19T23:08:41;100589.72;;;23.92;47.96
60886;BME280;46736;41.654;-8.438;2022-08-19T23:10:42;100601.97;;;23.95;48.04
60886;BME280;46736;41.654;-8.438;2022-08-19T23:12:46;100602.97;;;23.90;48.58
60886;BME280;46736;41.654;-8.438;2022-08-19T23:14:47;100596.13;;;23.75;49.64
60886;BME280;46736;41.654;-8.438;2022-08-19T23:16:48;100578.47;;;23.47;50.06
60886;BME280;46736;41.654;-8.438;2022-08-19T23:18:49;100588.41;;;23.60;50.31
60886;BME280;46736;41.654;-8.438;2022-08-19T23:20:50;100583.13;;;23.46;49.66
60886;BME280;46736;41.654;-8.438;2022-08-19T23:23:05;100598.69;;;23.33;50.40
60886;BME280;46736;41.654;-8.438;2022-08-19T23:25:10;100596.44;;;23.27;50.34
60886;BME280;46736;41.654;-8.438;2022-08-19T23:27:11;100587.28;;;23.14;50.49
60886;BME280;46736;41.654;-8.438;2022-08-19T23:29:27;100593.25;;;23.16;50.58
60886;BME280;46736;41.654;-8.438;2022-08-19T23:31:43;100582.00;;;23.00;50.69
60886;BME280;46736;41.654;-8.438;2022-08-19T23:33:44;100594.44;;;22.98;52.00
60886;BME280;46736;41.654;-8.438;2022-08-19T23:35:44;100593.59;;;22.88;52.09
60886;BME280;46736;41.654;-8.438;2022-08-19T23:37:45;100552.03;;;22.69;53.50
60886;BME280;46736;41.654;-8.438;2022-08-19T23:39:47;100594.56;;;23.01;53.84
60886;BME280;46736;41.654;-8.438;2022-08-19T23:41:47;100587.63;;;22.78;54.36
60886;BME280;46736;41.654;-8.438;2022-08-19T23:43:48;100567.19;;;22.58;54.75
60886;BME280;46736;41.654;-8.438;2022-08-19T23:45:50;100588.78;;;22.68;54.77
60886;BME280;46736;41.654;-8.438;2022-08-19T23:47:51;100568.63;;;22.38;55.24
60886;BME280;46736;41.654;-8.438;2022-08-19T23:49:52;100578.47;;;22.39;56.27
60886;BME280;46736;41.654;-8.438;2022-08-19T23:51:53;100578.63;;;22.34;56.59
60886;BME280;46736;41.654;-8.438;2022-08-19T23:53:55;100576.03;;;22.20;55.53
60886;BME280;46736;41.654;-8.438;2022-08-19T23:55:57;100563.25;;;22.06;55.90
60886;BME280;46736;41.654;-8.438;2022-08-19T23:57:58;100582.59;;;22.10;56.43
